sensor_id;sensor_type;location;lat;lon;timestamp;temperature;humidity
37322;DHT22;23697;48.684;9.032;2022-10-31T00:00:27;10.70;87.30
37322;DHT22;23697;48.684;9.032;2022-10-31T00:02:55;10.60;87.20
37322;DHT22;23697;48.684;9.032;2022-10-31T00:05:22;10.60;87.30
37322;DHT22;23697;48.684;9.032;2022-10-31T00:07:52;10.70;87.50
37322;DHT22;23697;48.684;9.032;2022-10-31T00:10:18;10.60;87.40
37322;DHT22;23697;48.684;9.032;2022-10-31T00:12:45;10.60;87.50
37322;DHT22;23697;48.684;9.032;2022-10-31T00:15:12;10.70;87.50
37322;DHT22;23697;48.684;9.032;2022-10-31T00:17:39;10.60;87.50
37322;DHT22;23697;48.684;9.032;2022-10-31T00:20:08;10.70;87.40
37322;DHT22;23697;48.684;9.032;2022-10-31T00:22:35;10.60;87.40
37322;DHT22;23697;48.684;9.032;2022-10-31T00:25:02;10.60;87.40
37322;DHT22;23697;48.684;9.032;2022-10-31T00:27:29;10.50;87.30
37322;DHT22;23697;48.684;9.032;2022-10-31T00:29:56;10.60;87.30
37322;DHT22;23697;48.684;9.032;2022-10-31T00:32:23;10.60;87.40
37322;DHT22;23697;48.684;9.032;2022-10-31T00:34:50;10.60;87.50
37322;DHT22;23697;48.684;9.032;2022-10-31T00:37:18;10.50;87.40
37322;DHT22;23697;48.684;9.032;2022-10-31T00:39:45;10.50;87.50
37322;DHT22;23697;48.684;9.032;2022-10-31T00:42:14;10.40;87.40
37322;DHT22;23697;48.684;9.032;2022-10-31T00:44:41;10.40;87.50
37322;DHT22;23697;48.684;9.032;2022-10-31T00:47:08;10.40;87.40
37322;DHT22;23697;48.684;9.032;2022-10-31T00:49:34;10.30;87.30
37322;DHT22;23697;48.684;9.032;2022-10-31T00:52:01;10.30;87.30
37322;DHT22;23697;48.684;9.032;2022-10-31T00:54:29;10.20;87.30
37322;DHT22;23697;48.684;9.032;2022-10-31T00:56:57;10.20;87.30
37322;DHT22;23697;48.684;9.032;2022-10-31T00:59:23;10.20;87.20
37322;DHT22;23697;48.684;9.032;2022-10-31T01:01:50;10.20;87.20
37322;DHT22;23697;48.684;9.032;2022-10-31T01:04:17;10.10;87.20
37322;DHT22;23697;48.684;9.032;2022-10-31T01:06:44;10.10;87.20
37322;DHT22;23697;48.684;9.032;2022-10-31T01:09:11;10.10;87.20
37322;DHT22;23697;48.684;9.032;2022-10-31T01:11:39;10.10;87.10
37322;DHT22;23697;48.684;9.032;2022-10-31T01:14:06;10.10;87.00
37322;DHT22;23697;48.684;9.032;2022-10-31T01:16:33;10.10;87.10
37322;DHT22;23697;48.684;9.032;2022-10-31T01:19:00;10.00;87.20
37322;DHT22;23697;48.684;9.032;2022-10-31T01:21:28;10.10;87.30
37322;DHT22;23697;48.684;9.032;2022-10-31T01:23:55;10.00;87.50
37322;DHT22;23697;48.684;9.032;2022-10-31T01:26:24;10.00;87.60
37322;DHT22;23697;48.684;9.032;2022-10-31T01:28:54;10.10;87.60
37322;DHT22;23697;48.684;9.032;2022-10-31T01:31:23;10.00;87.70
37322;DHT22;23697;48.684;9.032;2022-10-31T01:33:51;10.00;87.80
37322;DHT22;23697;48.684;9.032;2022-10-31T01:36:19;10.00;87.80
37322;DHT22;23697;48.684;9.032;2022-10-31T01:38:47;10.10;87.80
37322;DHT22;23697;48.684;9.032;2022-10-31T01:41:16;10.00;87.80
37322;DHT22;23697;48.684;9.032;2022-10-31T01:43:48;10.00;87.80
37322;DHT22;23697;48.684;9.032;2022-10-31T01:46:19;10.00;88.00
37322;DHT22;23697;48.684;9.032;2022-10-31T01:48:48;9.90;87.90
37322;DHT22;23697;48.684;9.032;2022-10-31T01:51:18;9.90;87.90
37322;DHT22;23697;48.684;9.032;2022-10-31T01:53:48;9.90;87.90
37322;DHT22;23697;48.684;9.032;2022-10-31T01:56:18;10.00;87.90
37322;DHT22;23697;48.684;9.032;2022-10-31T01:58:45;10.00;87.80
37322;DHT22;23697;48.684;9.032;2022-10-31T02:01:13;9.90;87.80
37322;DHT22;23697;48.684;9.032;2022-10-31T02:03:42;9.90;87.80
37322;DHT22;23697;48.684;9.032;2022-10-31T02:06:16;9.80;87.70
37322;DHT22;23697;48.684;9.032;2022-10-31T02:08:45;9.70;87.70
37322;DHT22;23697;48.684;9.032;2022-10-31T02:11:13;9.60;87.70
37322;DHT22;23697;48.684;9.032;2022-10-31T02:13:40;9.60;87.70
37322;DHT22;23697;48.684;9.032;2022-10-31T02:16:09;9.60;87.70
37322;DHT22;23697;48.684;9.032;2022-10-31T02:18:36;9.60;87.70
37322;DHT22;23697;48.684;9.032;2022-10-31T02:21:10;9.60;87.80
37322;DHT22;23697;48.684;9.032;2022-10-31T02:24:29;9.60;87.90
37322;DHT22;23697;48.684;9.032;2022-10-31T02:27:16;9.60;87.90
37322;DHT22;23697;48.684;9.032;2022-10-31T02:30:07;9.60;88.00
37322;DHT22;23697;48.684;9.032;2022-10-31T02:32:56;9.60;88.00
37322;DHT22;23697;48.684;9.032;2022-10-31T02:35:37;9.40;87.90
37322;DHT22;23697;48.684;9.032;2022-10-31T02:38:13;9.40;87.90
37322;DHT22;23697;48.684;9.032;2022-10-31T02:40:48;9.40;88.00
37322;DHT22;23697;48.684;9.032;2022-10-31T02:43:20;9.30;88.00
37322;DHT22;23697;48.684;9.032;2022-10-31T02:45:50;9.30;88.10
37322;DHT22;23697;48.684;9.032;2022-10-31T02:48:23;9.40;88.10
37322;DHT22;23697;48.684;9.032;2022-10-31T02:50:55;9.40;88.20
37322;DHT22;23697;48.684;9.032;2022-10-31T02:53:23;9.30;88.20
37322;DHT22;23697;48.684;9.032;2022-10-31T02:55:56;9.30;88.20
37322;DHT22;23697;48.684;9.032;2022-10-31T02:58:26;9.20;88.10
37322;DHT22;23697;48.684;9.032;2022-10-31T03:01:32;9.20;88.00
37322;DHT22;23697;48.684;9.032;2022-10-31T03:04:14;9.30;88.00
37322;DHT22;23697;48.684;9.032;2022-10-31T03:06:45;9.20;88.00
37322;DHT22;23697;48.684;9.032;2022-10-31T03:09:22;9.30;88.10
37322;DHT22;23697;48.684;9.032;2022-10-31T03:11:57;9.30;88.20
37322;DHT22;23697;48.684;9.032;2022-10-31T03:14:27;9.20;88.20
37322;DHT22;23697;48.684;9.032;2022-10-31T03:16:59;9.20;88.20
37322;DHT22;23697;48.684;9.032;2022-10-31T03:19:34;9.10;88.30
37322;DHT22;23697;48.684;9.032;2022-10-31T03:22:29;9.10;88.20
37322;DHT22;23697;48.684;9.032;2022-10-31T03:25:01;9.10;88.30
37322;DHT22;23697;48.684;9.032;2022-10-31T03:27:32;9.00;88.20
37322;DHT22;23697;48.684;9.032;2022-10-31T03:30:00;9.10;88.30
37322;DHT22;23697;48.684;9.032;2022-10-31T03:32:30;9.00;88.30
37322;DHT22;23697;48.684;9.032;2022-10-31T03:35:01;9.10;88.30
37322;DHT22;23697;48.684;9.032;2022-10-31T03:37:32;9.00;88.30
37322;DHT22;23697;48.684;9.032;2022-10-31T03:40:00;9.00;88.30
37322;DHT22;23697;48.684;9.032;2022-10-31T03:42:30;9.00;88.40
37322;DHT22;23697;48.684;9.032;2022-10-31T03:44:59;9.00;88.40
37322;DHT22;23697;48.684;9.032;2022-10-31T03:47:28;9.00;88.40
37322;DHT22;23697;48.684;9.032;2022-10-31T03:49:55;8.90;88.40
37322;DHT22;23697;48.684;9.032;2022-10-31T03:52:26;9.00;88.30
37322;DHT22;23697;48.684;9.032;2022-10-31T03:54:57;9.00;88.30
37322;DHT22;23697;48.684;9.032;2022-10-31T03:57:29;9.00;88.40
37322;DHT22;23697;48.684;9.032;2022-10-31T04:00:03;8.90;88.50
37322;DHT22;23697;48.684;9.032;2022-10-31T04:02:32;8.90;88.50
37322;DHT22;23697;48.684;9.032;2022-10-31T04:05:00;8.90;88.50
37322;DHT22;23697;48.684;9.032;2022-10-31T04:07:40;9.00;88.50
37322;DHT22;23697;48.684;9.032;2022-10-31T04:10:11;9.00;88.60
37322;DHT22;23697;48.684;9.032;2022-10-31T04:12:39;8.90;88.60
37322;DHT22;23697;48.684;9.032;2022-10-31T04:15:10;8.80;88.60
37322;DHT22;23697;48.684;9.032;2022-10-31T04:17:40;8.80;88.60
37322;DHT22;23697;48.684;9.032;2022-10-31T04:20:08;8.70;88.50
37322;DHT22;23697;48.684;9.032;2022-10-31T04:22:36;8.70;88.50
37322;DHT22;23697;48.684;9.032;2022-10-31T04:25:07;8.60;88.50
37322;DHT22;23697;48.684;9.032;2022-10-31T04:27:35;8.60;88.60
37322;DHT22;23697;48.684;9.032;2022-10-31T04:30:02;8.70;88.50
37322;DHT22;23697;48.684;9.032;2022-10-31T04:32:29;8.60;88.40
37322;DHT22;23697;48.684;9.032;2022-10-31T04:34:56;8.60;88.40
37322;DHT22;23697;48.684;9.032;2022-10-31T04:37:22;8.60;88.40
37322;DHT22;23697;48.684;9.032;2022-10-31T04:39:51;8.60;88.50
37322;DHT22;23697;48.684;9.032;2022-10-31T04:42:18;8.60;88.50
37322;DHT22;23697;48.684;9.032;2022-10-31T04:44:45;8.60;88.50
37322;DHT22;23697;48.684;9.032;2022-10-31T04:47:12;8.60;88.50
37322;DHT22;23697;48.684;9.032;2022-10-31T04:49:39;8.50;88.50
37322;DHT22;23697;48.684;9.032;2022-10-31T04:52:06;8.60;88.50
37322;DHT22;23697;48.684;9.032;2022-10-31T04:54:33;8.60;88.60
37322;DHT22;23697;48.684;9.032;2022-10-31T04:57:02;8.50;88.60
37322;DHT22;23697;48.684;9.032;2022-10-31T04:59:29;8.50;88.60
37322;DHT22;23697;48.684;9.032;2022-10-31T05:01:56;8.60;88.70
37322;DHT22;23697;48.684;9.032;2022-10-31T05:04:23;8.60;88.70
37322;DHT22;23697;48.684;9.032;2022-10-31T05:06:50;8.50;88.70
37322;DHT22;23697;48.684;9.032;2022-10-31T05:09:17;8.50;88.70
37322;DHT22;23697;48.684;9.032;2022-10-31T05:11:43;8.50;88.70
37322;DHT22;23697;48.684;9.032;2022-10-31T05:14:12;8.40;88.70
37322;DHT22;23697;48.684;9.032;2022-10-31T05:16:39;8.50;88.70
37322;DHT22;23697;48.684;9.032;2022-10-31T05:19:06;8.40;88.70
37322;DHT22;23697;48.684;9.032;2022-10-31T05:21:33;8.40;88.70
37322;DHT22;23697;48.684;9.032;2022-10-31T05:24:00;8.30;88.60
37322;DHT22;23697;48.684;9.032;2022-10-31T05:26:26;8.30;88.60
37322;DHT22;23697;48.684;9.032;2022-10-31T05:28:53;8.30;88.60
37322;DHT22;23697;48.684;9.032;2022-10-31T05:31:21;8.20;88.50
37322;DHT22;23697;48.684;9.032;2022-10-31T05:33:49;8.20;88.50
37322;DHT22;23697;48.684;9.032;2022-10-31T05:36:16;8.20;88.60
37322;DHT22;23697;48.684;9.032;2022-10-31T05:38:42;8.30;88.60
37322;DHT22;23697;48.684;9.032;2022-10-31T05:41:09;8.20;88.50
37322;DHT22;23697;48.684;9.032;2022-10-31T05:43:36;8.20;88.60
37322;DHT22;23697;48.684;9.032;2022-10-31T05:46:03;8.20;88.70
37322;DHT22;23697;48.684;9.032;2022-10-31T05:48:32;8.20;88.70
37322;DHT22;23697;48.684;9.032;2022-10-31T05:50:58;8.10;88.60
37322;DHT22;23697;48.684;9.032;2022-10-31T05:53:25;8.10;88.60
37322;DHT22;23697;48.684;9.032;2022-10-31T05:55:52;8.20;88.70
37322;DHT22;23697;48.684;9.032;2022-10-31T05:58:19;8.10;88.70
37322;DHT22;23697;48.684;9.032;2022-10-31T06:01:25;8.00;88.60
37322;DHT22;23697;48.684;9.032;2022-10-31T06:03:54;8.00;88.60
37322;DHT22;23697;48.684;9.032;2022-10-31T06:06:21;8.00;88.60
37322;DHT22;23697;48.684;9.032;2022-10-31T06:08:48;8.00;88.60
37322;DHT22;23697;48.684;9.032;2022-10-31T06:11:14;8.00;88.60
37322;DHT22;23697;48.684;9.032;2022-10-31T06:13:41;8.00;88.60
37322;DHT22;23697;48.684;9.032;2022-10-31T06:16:08;8.10;88.70
37322;DHT22;23697;48.684;9.032;2022-10-31T06:18:35;8.10;88.70
37322;DHT22;23697;48.684;9.032;2022-10-31T06:21:04;8.10;88.80
37322;DHT22;23697;48.684;9.032;2022-10-31T06:23:31;8.20;88.90
37322;DHT22;23697;48.684;9.032;2022-10-31T06:25:58;8.20;89.00
37322;DHT22;23697;48.684;9.032;2022-10-31T06:28:25;8.10;89.00
37322;DHT22;23697;48.684;9.032;2022-10-31T06:30:55;8.20;89.10
37322;DHT22;23697;48.684;9.032;2022-10-31T06:33:22;8.20;89.10
37322;DHT22;23697;48.684;9.032;2022-10-31T06:36:17;8.20;89.10
37322;DHT22;23697;48.684;9.032;2022-10-31T06:38:44;8.20;88.90
37322;DHT22;23697;48.684;9.032;2022-10-31T06:41:11;8.30;88.90
37322;DHT22;23697;48.684;9.032;2022-10-31T06:43:38;8.30;88.80
37322;DHT22;23697;48.684;9.032;2022-10-31T06:46:05;8.30;88.80
37322;DHT22;23697;48.684;9.032;2022-10-31T06:48:32;8.30;89.00
37322;DHT22;23697;48.684;9.032;2022-10-31T06:51:00;8.40;89.00
37322;DHT22;23697;48.684;9.032;2022-10-31T06:53:28;8.40;89.00
37322;DHT22;23697;48.684;9.032;2022-10-31T06:55:56;8.50;89.10
37322;DHT22;23697;48.684;9.032;2022-10-31T06:58:24;8.50;89.00
37322;DHT22;23697;48.684;9.032;2022-10-31T07:00:50;8.60;89.00
37322;DHT22;23697;48.684;9.032;2022-10-31T07:03:17;8.70;88.90
37322;DHT22;23697;48.684;9.032;2022-10-31T07:05:45;8.80;88.90
37322;DHT22;23697;48.684;9.032;2022-10-31T07:08:13;8.70;88.90
37322;DHT22;23697;48.684;9.032;2022-10-31T07:10:42;8.90;88.90
37322;DHT22;23697;48.684;9.032;2022-10-31T07:13:12;9.00;89.00
37322;DHT22;23697;48.684;9.032;2022-10-31T07:15:40;9.00;89.00
37322;DHT22;23697;48.684;9.032;2022-10-31T07:18:09;9.10;89.10
37322;DHT22;23697;48.684;9.032;2022-10-31T07:20:36;9.10;89.00
37322;DHT22;23697;48.684;9.032;2022-10-31T07:23:07;9.20;89.00
37322;DHT22;23697;48.684;9.032;2022-10-31T07:25:34;9.30;89.00
37322;DHT22;23697;48.684;9.032;2022-10-31T07:28:06;9.40;89.10
37322;DHT22;23697;48.684;9.032;2022-10-31T07:30:49;9.40;89.00
37322;DHT22;23697;48.684;9.032;2022-10-31T07:33:17;9.50;89.00
37322;DHT22;23697;48.684;9.032;2022-10-31T07:35:44;9.60;89.00
37322;DHT22;23697;48.684;9.032;2022-10-31T07:38:12;9.60;89.00
37322;DHT22;23697;48.684;9.032;2022-10-31T07:40:41;9.70;88.90
37322;DHT22;23697;48.684;9.032;2022-10-31T07:43:10;9.80;88.90
37322;DHT22;23697;48.684;9.032;2022-10-31T07:45:37;9.90;88.90
37322;DHT22;23697;48.684;9.032;2022-10-31T07:48:05;10.00;88.90
37322;DHT22;23697;48.684;9.032;2022-10-31T07:50:32;10.10;88.90
37322;DHT22;23697;48.684;9.032;2022-10-31T07:53:00;10.20;88.90
37322;DHT22;23697;48.684;9.032;2022-10-31T07:55:28;10.30;88.90
37322;DHT22;23697;48.684;9.032;2022-10-31T07:57:56;10.50;88.80
37322;DHT22;23697;48.684;9.032;2022-10-31T08:00:25;10.60;88.80
37322;DHT22;23697;48.684;9.032;2022-10-31T08:02:59;10.80;88.80
37322;DHT22;23697;48.684;9.032;2022-10-31T08:05:26;10.90;88.70
37322;DHT22;23697;48.684;9.032;2022-10-31T08:07:53;11.10;88.70
37322;DHT22;23697;48.684;9.032;2022-10-31T08:10:20;11.20;88.60
37322;DHT22;23697;48.684;9.032;2022-10-31T08:12:47;11.30;88.50
37322;DHT22;23697;48.684;9.032;2022-10-31T08:15:20;11.40;88.30
37322;DHT22;23697;48.684;9.032;2022-10-31T08:17:48;11.50;88.20
37322;DHT22;23697;48.684;9.032;2022-10-31T08:20:15;11.50;88.10
37322;DHT22;23697;48.684;9.032;2022-10-31T08:22:43;11.60;88.00
37322;DHT22;23697;48.684;9.032;2022-10-31T08:25:09;11.70;87.90
37322;DHT22;23697;48.684;9.032;2022-10-31T08:27:36;11.80;87.90
37322;DHT22;23697;48.684;9.032;2022-10-31T08:30:04;12.00;87.80
37322;DHT22;23697;48.684;9.032;2022-10-31T08:32:31;12.00;87.70
37322;DHT22;23697;48.684;9.032;2022-10-31T08:34:59;12.10;87.60
37322;DHT22;23697;48.684;9.032;2022-10-31T08:37:26;12.20;87.60
37322;DHT22;23697;48.684;9.032;2022-10-31T08:39:53;12.40;87.60
37322;DHT22;23697;48.684;9.032;2022-10-31T08:42:19;12.60;87.50
37322;DHT22;23697;48.684;9.032;2022-10-31T08:44:46;12.60;87.30
37322;DHT22;23697;48.684;9.032;2022-10-31T08:47:13;12.80;87.10
37322;DHT22;23697;48.684;9.032;2022-10-31T08:49:40;12.90;86.70
37322;DHT22;23697;48.684;9.032;2022-10-31T08:52:08;13.10;86.50
37322;DHT22;23697;48.684;9.032;2022-10-31T08:54:35;13.20;86.30
37322;DHT22;23697;48.684;9.032;2022-10-31T08:57:02;13.10;84.90
37322;DHT22;23697;48.684;9.032;2022-10-31T08:59:29;13.20;84.70
37322;DHT22;23697;48.684;9.032;2022-10-31T09:01:55;13.30;84.70
37322;DHT22;23697;48.684;9.032;2022-10-31T09:04:22;13.50;84.70
37322;DHT22;23697;48.684;9.032;2022-10-31T09:06:49;13.60;84.40
37322;DHT22;23697;48.684;9.032;2022-10-31T09:09:17;13.60;84.10
37322;DHT22;23697;48.684;9.032;2022-10-31T09:11:44;13.60;83.70
37322;DHT22;23697;48.684;9.032;2022-10-31T09:14:11;13.70;82.50
37322;DHT22;23697;48.684;9.032;2022-10-31T09:16:38;13.70;83.10
37322;DHT22;23697;48.684;9.032;2022-10-31T09:19:04;13.80;83.20
37322;DHT22;23697;48.684;9.032;2022-10-31T09:21:31;13.90;83.10
37322;DHT22;23697;48.684;9.032;2022-10-31T09:23:58;14.00;83.00
37322;DHT22;23697;48.684;9.032;2022-10-31T09:26:26;14.10;83.10
37322;DHT22;23697;48.684;9.032;2022-10-31T09:28:53;14.10;82.70
37322;DHT22;23697;48.684;9.032;2022-10-31T09:31:20;14.20;82.30
37322;DHT22;23697;48.684;9.032;2022-10-31T09:33:47;14.30;81.80
37322;DHT22;23697;48.684;9.032;2022-10-31T09:36:13;14.40;81.50
37322;DHT22;23697;48.684;9.032;2022-10-31T09:38:40;14.60;81.30
37322;DHT22;23697;48.684;9.032;2022-10-31T09:41:17;14.60;81.40
37322;DHT22;23697;48.684;9.032;2022-10-31T09:43:58;14.70;81.50
37322;DHT22;23697;48.684;9.032;2022-10-31T09:46:34;14.90;81.50
37322;DHT22;23697;48.684;9.032;2022-10-31T09:49:29;15.00;80.30
37322;DHT22;23697;48.684;9.032;2022-10-31T09:52:00;15.10;80.00
37322;DHT22;23697;48.684;9.032;2022-10-31T09:54:34;15.10;79.10
37322;DHT22;23697;48.684;9.032;2022-10-31T09:57:02;15.30;78.80
37322;DHT22;23697;48.684;9.032;2022-10-31T09:59:34;15.40;78.60
37322;DHT22;23697;48.684;9.032;2022-10-31T10:02:04;15.50;78.70
37322;DHT22;23697;48.684;9.032;2022-10-31T10:04:34;15.60;78.40
37322;DHT22;23697;48.684;9.032;2022-10-31T10:07:09;15.70;78.70
37322;DHT22;23697;48.684;9.032;2022-10-31T10:09:37;15.80;78.50
37322;DHT22;23697;48.684;9.032;2022-10-31T10:12:12;16.00;78.30
37322;DHT22;23697;48.684;9.032;2022-10-31T10:14:55;16.10;77.80
37322;DHT22;23697;48.684;9.032;2022-10-31T10:17:59;16.20;77.40
37322;DHT22;23697;48.684;9.032;2022-10-31T10:20:34;16.40;77.30
37322;DHT22;23697;48.684;9.032;2022-10-31T10:23:17;16.50;77.00
37322;DHT22;23697;48.684;9.032;2022-10-31T10:25:53;16.60;76.40
37322;DHT22;23697;48.684;9.032;2022-10-31T10:28:28;16.60;76.30
37322;DHT22;23697;48.684;9.032;2022-10-31T10:31:39;16.70;76.00
37322;DHT22;23697;48.684;9.032;2022-10-31T10:34:14;16.80;75.30
37322;DHT22;23697;48.684;9.032;2022-10-31T10:36:48;16.90;75.10
37322;DHT22;23697;48.684;9.032;2022-10-31T10:39:19;16.90;74.10
37322;DHT22;23697;48.684;9.032;2022-10-31T10:41:48;16.90;72.80
37322;DHT22;23697;48.684;9.032;2022-10-31T10:44:30;17.00;74.10
37322;DHT22;23697;48.684;9.032;2022-10-31T10:47:16;17.10;74.10
37322;DHT22;23697;48.684;9.032;2022-10-31T10:50:03;17.10;73.40
37322;DHT22;23697;48.684;9.032;2022-10-31T10:52:39;17.30;73.90
37322;DHT22;23697;48.684;9.032;2022-10-31T10:55:15;17.40;73.70
37322;DHT22;23697;48.684;9.032;2022-10-31T10:57:55;17.50;73.00
37322;DHT22;23697;48.684;9.032;2022-10-31T11:00:23;17.60;73.30
37322;DHT22;23697;48.684;9.032;2022-10-31T11:02:52;17.70;71.90
37322;DHT22;23697;48.684;9.032;2022-10-31T11:05:26;17.80;71.50
37322;DHT22;23697;48.684;9.032;2022-10-31T11:07:55;18.00;71.10
37322;DHT22;23697;48.684;9.032;2022-10-31T11:10:22;18.20;71.00
37322;DHT22;23697;48.684;9.032;2022-10-31T11:13:03;18.50;71.30
37322;DHT22;23697;48.684;9.032;2022-10-31T11:15:34;18.60;70.80
37322;DHT22;23697;48.684;9.032;2022-10-31T11:18:03;18.70;70.00
37322;DHT22;23697;48.684;9.032;2022-10-31T11:20:32;18.70;69.10
37322;DHT22;23697;48.684;9.032;2022-10-31T11:23:04;18.90;69.70
37322;DHT22;23697;48.684;9.032;2022-10-31T11:25:31;19.00;67.90
37322;DHT22;23697;48.684;9.032;2022-10-31T11:28:03;19.00;67.40
37322;DHT22;23697;48.684;9.032;2022-10-31T11:30:31;19.10;67.50
37322;DHT22;23697;48.684;9.032;2022-10-31T11:33:04;19.10;65.90
37322;DHT22;23697;48.684;9.032;2022-10-31T11:35:31;19.00;65.10
37322;DHT22;23697;48.684;9.032;2022-10-31T11:37:59;19.10;67.30
37322;DHT22;23697;48.684;9.032;2022-10-31T11:40:28;19.10;66.80
37322;DHT22;23697;48.684;9.032;2022-10-31T11:43:00;19.20;65.40
37322;DHT22;23697;48.684;9.032;2022-10-31T11:45:30;19.30;66.80
37322;DHT22;23697;48.684;9.032;2022-10-31T11:48:54;19.40;65.50
37322;DHT22;23697;48.684;9.032;2022-10-31T11:51:32;19.20;65.60
37322;DHT22;23697;48.684;9.032;2022-10-31T11:54:00;19.10;66.20
37322;DHT22;23697;48.684;9.032;2022-10-31T11:56:40;19.10;66.30
37322;DHT22;23697;48.684;9.032;2022-10-31T11:59:26;19.10;66.10
37322;DHT22;23697;48.684;9.032;2022-10-31T12:01:55;19.00;66.70
37322;DHT22;23697;48.684;9.032;2022-10-31T12:04:35;19.00;66.70
37322;DHT22;23697;48.684;9.032;2022-10-31T12:07:04;19.00;67.10
37322;DHT22;23697;48.684;9.032;2022-10-31T12:09:34;19.10;67.00
37322;DHT22;23697;48.684;9.032;2022-10-31T12:12:29;19.10;66.10
37322;DHT22;23697;48.684;9.032;2022-10-31T12:15:06;19.30;66.30
37322;DHT22;23697;48.684;9.032;2022-10-31T12:17:43;19.30;66.10
37322;DHT22;23697;48.684;9.032;2022-10-31T12:20:21;19.40;66.40
37322;DHT22;23697;48.684;9.032;2022-10-31T12:22:58;19.30;66.60
37322;DHT22;23697;48.684;9.032;2022-10-31T12:25:34;19.30;66.60
37322;DHT22;23697;48.684;9.032;2022-10-31T12:28:36;19.10;66.50
37322;DHT22;23697;48.684;9.032;2022-10-31T12:31:17;19.10;66.50
37322;DHT22;23697;48.684;9.032;2022-10-31T12:33:57;19.00;66.80
37322;DHT22;23697;48.684;9.032;2022-10-31T12:36:47;18.90;66.90
37322;DHT22;23697;48.684;9.032;2022-10-31T12:39:25;18.80;67.30
37322;DHT22;23697;48.684;9.032;2022-10-31T12:42:00;18.70;67.50
37322;DHT22;23697;48.684;9.032;2022-10-31T12:44:44;18.70;67.80
37322;DHT22;23697;48.684;9.032;2022-10-31T12:47:40;18.60;67.30
37322;DHT22;23697;48.684;9.032;2022-10-31T12:50:21;18.50;67.30
37322;DHT22;23697;48.684;9.032;2022-10-31T12:52:58;18.40;68.70
37322;DHT22;23697;48.684;9.032;2022-10-31T12:55:40;18.50;69.90
37322;DHT22;23697;48.684;9.032;2022-10-31T12:58:20;18.60;70.90
37322;DHT22;23697;48.684;9.032;2022-10-31T13:00:50;18.50;70.40
37322;DHT22;23697;48.684;9.032;2022-10-31T13:03:24;18.60;69.70
37322;DHT22;23697;48.684;9.032;2022-10-31T13:05:54;18.50;69.50
37322;DHT22;23697;48.684;9.032;2022-10-31T13:08:30;18.50;70.20
37322;DHT22;23697;48.684;9.032;2022-10-31T13:11:06;18.50;69.90
37322;DHT22;23697;48.684;9.032;2022-10-31T13:13:38;18.50;70.20
37322;DHT22;23697;48.684;9.032;2022-10-31T13:16:11;18.50;70.90
37322;DHT22;23697;48.684;9.032;2022-10-31T13:18:43;18.50;72.00
37322;DHT22;23697;48.684;9.032;2022-10-31T13:21:19;18.60;71.00
37322;DHT22;23697;48.684;9.032;2022-10-31T13:23:50;18.60;71.20
37322;DHT22;23697;48.684;9.032;2022-10-31T13:26:35;18.70;71.30
37322;DHT22;23697;48.684;9.032;2022-10-31T13:29:11;18.80;70.50
37322;DHT22;23697;48.684;9.032;2022-10-31T13:31:41;18.90;69.70
37322;DHT22;23697;48.684;9.032;2022-10-31T13:34:16;19.20;69.60
37322;DHT22;23697;48.684;9.032;2022-10-31T13:36:49;19.50;69.10
37322;DHT22;23697;48.684;9.032;2022-10-31T13:39:27;19.60;67.00
37322;DHT22;23697;48.684;9.032;2022-10-31T13:42:01;19.50;67.40
37322;DHT22;23697;48.684;9.032;2022-10-31T13:44:30;19.40;68.20
37322;DHT22;23697;48.684;9.032;2022-10-31T13:47:18;19.30;67.40
37322;DHT22;23697;48.684;9.032;2022-10-31T13:49:46;19.30;68.50
37322;DHT22;23697;48.684;9.032;2022-10-31T13:52:15;19.40;68.30
37322;DHT22;23697;48.684;9.032;2022-10-31T13:54:45;19.60;68.40
37322;DHT22;23697;48.684;9.032;2022-10-31T13:57:17;19.50;68.30
37322;DHT22;23697;48.684;9.032;2022-10-31T13:59:48;19.30;68.50
37322;DHT22;23697;48.684;9.032;2022-10-31T14:02:17;19.20;68.80
37322;DHT22;23697;48.684;9.032;2022-10-31T14:04:48;19.10;68.80
37322;DHT22;23697;48.684;9.032;2022-10-31T14:07:16;19.10;68.70
37322;DHT22;23697;48.684;9.032;2022-10-31T14:09:54;19.10;69.50
37322;DHT22;23697;48.684;9.032;2022-10-31T14:12:25;19.10;69.80
37322;DHT22;23697;48.684;9.032;2022-10-31T14:14:58;19.10;69.10
37322;DHT22;23697;48.684;9.032;2022-10-31T14:17:28;19.10;69.50
37322;DHT22;23697;48.684;9.032;2022-10-31T14:20:25;19.10;68.10
37322;DHT22;23697;48.684;9.032;2022-10-31T14:22:52;19.10;68.90
37322;DHT22;23697;48.684;9.032;2022-10-31T14:28:56;19.20;68.70
37322;DHT22;23697;48.684;9.032;2022-10-31T14:31:32;19.10;67.60
37322;DHT22;23697;48.684;9.032;2022-10-31T14:37:08;19.00;69.70
37322;DHT22;23697;48.684;9.032;2022-10-31T14:39:47;18.90;70.50
37322;DHT22;23697;48.684;9.032;2022-10-31T14:42:29;18.90;69.90
37322;DHT22;23697;48.684;9.032;2022-10-31T14:45:25;18.90;70.80
37322;DHT22;23697;48.684;9.032;2022-10-31T14:48:08;18.90;71.20
37322;DHT22;23697;48.684;9.032;2022-10-31T14:50:47;18.80;70.10
37322;DHT22;23697;48.684;9.032;2022-10-31T14:53:18;18.70;70.70
37322;DHT22;23697;48.684;9.032;2022-10-31T14:55:48;18.70;71.10
37322;DHT22;23697;48.684;9.032;2022-10-31T14:58:20;18.60;71.40
37322;DHT22;23697;48.684;9.032;2022-10-31T15:00:51;18.60;71.90
37322;DHT22;23697;48.684;9.032;2022-10-31T15:03:24;18.50;72.20
37322;DHT22;23697;48.684;9.032;2022-10-31T15:05:55;18.40;72.60
37322;DHT22;23697;48.684;9.032;2022-10-31T15:08:38;18.30;72.70
37322;DHT22;23697;48.684;9.032;2022-10-31T15:11:15;18.20;73.00
37322;DHT22;23697;48.684;9.032;2022-10-31T15:13:46;18.00;73.70
37322;DHT22;23697;48.684;9.032;2022-10-31T15:16:18;17.80;74.30
37322;DHT22;23697;48.684;9.032;2022-10-31T15:18:52;17.70;74.70
37322;DHT22;23697;48.684;9.032;2022-10-31T15:21:21;17.60;75.20
37322;DHT22;23697;48.684;9.032;2022-10-31T15:23:50;17.40;75.30
37322;DHT22;23697;48.684;9.032;2022-10-31T15:26:26;17.30;75.50
37322;DHT22;23697;48.684;9.032;2022-10-31T15:29:00;17.20;75.80
37322;DHT22;23697;48.684;9.032;2022-10-31T15:31:30;17.10;76.10
37322;DHT22;23697;48.684;9.032;2022-10-31T15:34:00;16.90;76.50
37322;DHT22;23697;48.684;9.032;2022-10-31T15:36:29;16.80;77.20
37322;DHT22;23697;48.684;9.032;2022-10-31T15:38:57;16.70;77.50
37322;DHT22;23697;48.684;9.032;2022-10-31T15:41:28;16.60;77.90
37322;DHT22;23697;48.684;9.032;2022-10-31T15:44:04;16.60;78.40
37322;DHT22;23697;48.684;9.032;2022-10-31T15:46:57;16.40;78.80
37322;DHT22;23697;48.684;9.032;2022-10-31T15:50:03;16.40;79.30
37322;DHT22;23697;48.684;9.032;2022-10-31T15:52:33;16.30;79.70
37322;DHT22;23697;48.684;9.032;2022-10-31T15:55:03;16.30;79.90
37322;DHT22;23697;48.684;9.032;2022-10-31T15:57:31;16.20;80.10
37322;DHT22;23697;48.684;9.032;2022-10-31T15:59:59;16.20;80.20
37322;DHT22;23697;48.684;9.032;2022-10-31T16:02:27;16.10;80.20
37322;DHT22;23697;48.684;9.032;2022-10-31T16:04:56;16.00;80.30
37322;DHT22;23697;48.684;9.032;2022-10-31T16:07:24;15.80;80.50
37322;DHT22;23697;48.684;9.032;2022-10-31T16:09:53;15.70;80.80
37322;DHT22;23697;48.684;9.032;2022-10-31T16:12:22;15.70;80.70